Time;durP1;ratioP1;P1;durP2;ratioP2;P2;SDS_P1;SDS_P2;PMS_P1;PMS_P2;Temp;Humidity;BMP_temperature;BMP_pressure;BME280_temperature;BME280_humidity;BME280_pressure;Samples;Min_cycle;Max_cycle;Signal;HPM_P1;HPM_P2
2020/12/22 00:01:10;;;;;;;0.60;0.43;;;10.30;97.20;;;;;;5012814;28;20033;-81
2020/12/22 00:03:35;;;;;;;0.47;0.30;;;10.30;97.20;;;;;;5012665;28;20024;-82
2020/12/22 00:06:01;;;;;;;1.65;0.50;;;10.30;97.20;;;;;;5026052;28;20064;-81
2020/12/22 00:08:26;;;;;;;1.63;1.13;;;10.30;97.10;;;;;;5017346;28;20029;-82
2020/12/22 00:10:52;;;;;;;2.50;0.47;;;10.40;97.20;;;;;;5026039;28;20365;-82
2020/12/22 00:13:17;;;;;;;0.55;0.40;;;10.40;97.20;;;;;;5012199;28;20058;-81
2020/12/22 00:15:43;;;;;;;1.67;0.60;;;10.40;97.20;;;;;;5012711;28;20380;-81
2020/12/22 00:18:08;;;;;;;0.22;0.22;;;10.40;97.20;;;;;;5039666;28;20036;-82
2020/12/22 00:20:35;;;;;;;1.27;0.68;;;10.50;97.30;;;;;;5018335;28;20038;-81
2020/12/22 00:23:01;;;;;;;1.25;0.50;;;10.50;97.30;;;;;;5038121;28;20105;-81
2020/12/22 00:25:26;;;;;;;1.95;0.55;;;10.50;97.30;;;;;;5037384;28;20035;-81
2020/12/22 00:27:52;;;;;;;1.02;0.38;;;10.50;97.30;;;;;;5031400;28;20036;-82
2020/12/22 00:30:17;;;;;;;1.38;0.60;;;10.50;97.30;;;;;;5019855;28;20127;-81
2020/12/22 00:32:43;;;;;;;0.63;0.50;;;10.60;97.20;;;;;;5035210;28;20032;-81
2020/12/22 00:35:08;;;;;;;1.13;0.43;;;10.60;97.30;;;;;;5028438;28;20474;-81
2020/12/22 00:37:34;;;;;;;1.42;0.50;;;10.60;97.30;;;;;;5023080;28;20463;-81
2020/12/22 00:39:59;;;;;;;0.95;0.57;;;10.70;97.20;;;;;;5042040;28;20028;-81
2020/12/22 00:42:25;;;;;;;0.50;0.40;;;10.70;97.20;;;;;;5027666;28;20021;-80
2020/12/22 00:44:50;;;;;;;0.57;0.40;;;10.70;97.20;;;;;;5033151;28;20037;-80
2020/12/22 00:47:16;;;;;;;0.20;0.15;;;10.70;97.30;;;;;;5033191;28;20037;-80
2020/12/22 00:49:41;;;;;;;0.68;0.50;;;10.70;97.20;;;;;;5021627;28;20031;-81
2020/12/22 00:52:07;;;;;;;0.98;0.43;;;10.80;97.20;;;;;;5046117;28;20036;-80
2020/12/22 00:54:32;;;;;;;1.02;0.45;;;10.80;97.10;;;;;;5024506;28;20040;-81
2020/12/22 00:56:58;;;;;;;0.20;0.20;;;10.80;97.10;;;;;;5031355;28;20398;-81
2020/12/22 00:59:23;;;;;;;1.67;0.20;;;10.80;97.10;;;;;;5033685;28;20050;-81
2020/12/22 01:01:49;;;;;;;0.98;0.20;;;10.80;97.10;;;;;;5046209;28;20040;-81
2020/12/22 01:04:15;;;;;;;0.70;0.50;;;10.80;97.00;;;;;;5039407;28;20516;-82
2020/12/22 01:06:41;;;;;;;0.60;0.30;;;10.80;96.90;;;;;;5036709;28;20031;-81
2020/12/22 01:09:07;;;;;;;1.38;0.35;;;10.90;97.00;;;;;;5076050;28;20036;-82
2020/12/22 01:11:39;;;;;;;1.30;0.40;;;10.90;96.90;;;;;;5044666;28;20033;-82
2020/12/22 01:14:07;;;;;;;0.30;0.10;;;10.90;97.00;;;;;;5041273;28;20024;-82
2020/12/22 01:16:33;;;;;;;0.82;0.30;;;10.90;97.00;;;;;;5023667;28;20056;-81
2020/12/22 01:18:58;;;;;;;0.90;0.65;;;10.90;96.80;;;;;;5032909;28;20103;-81
2020/12/22 01:21:24;;;;;;;0.55;0.40;;;11.00;97.00;;;;;;5018728;28;20025;-81
2020/12/22 01:23:50;;;;;;;0.45;0.40;;;11.00;97.10;;;;;;5030859;28;20119;-81
2020/12/22 01:26:22;;;;;;;0.93;0.40;;;11.00;97.20;;;;;;5037237;28;20039;-81
2020/12/22 01:28:47;;;;;;;0.43;0.32;;;11.00;97.20;;;;;;5046643;28;20066;-81
2020/12/22 01:31:20;;;;;;;0.68;0.22;;;11.00;97.30;;;;;;5027962;28;20484;-82
2020/12/22 01:33:45;;;;;;;1.85;0.40;;;11.10;97.40;;;;;;5029066;28;20443;-81
2020/12/22 01:36:11;;;;;;;0.80;0.70;;;11.10;97.40;;;;;;5029452;28;20113;-82
2020/12/22 01:38:36;;;;;;;1.08;0.52;;;11.10;97.40;;;;;;5031369;28;20059;-82
2020/12/22 01:41:02;;;;;;;0.20;0.20;;;11.10;97.30;;;;;;5028013;28;20064;-82
2020/12/22 01:43:27;;;;;;;2.85;0.55;;;11.10;97.40;;;;;;5027634;28;20119;-83
2020/12/22 01:45:53;;;;;;;1.58;0.28;;;11.10;97.50;;;;;;5015973;28;20067;-82
2020/12/22 01:48:18;;;;;;;0.55;0.32;;;11.20;97.50;;;;;;5050489;28;20032;-83
2020/12/22 01:50:44;;;;;;;0.85;0.30;;;11.20;97.50;;;;;;5041048;28;20032;-83
2020/12/22 01:53:10;;;;;;;0.40;0.22;;;11.20;97.50;;;;;;5024645;28;20028;-81
2020/12/22 01:55:41;;;;;;;0.32;0.28;;;11.20;97.50;;;;;;5029068;28;20028;-82
2020/12/22 01:58:06;;;;;;;1.00;0.30;;;11.30;97.70;;;;;;5049634;28;20048;-81
2020/12/22 02:00:32;;;;;;;0.50;0.38;;;11.30;97.60;;;;;;5034770;28;20035;-82
2020/12/22 02:02:57;;;;;;;0.40;0.20;;;11.30;97.60;;;;;;5044033;28;20058;-82
2020/12/22 02:05:23;;;;;;;1.73;0.60;;;11.40;97.70;;;;;;5030896;28;20136;-82
2020/12/22 02:07:48;;;;;;;0.85;0.70;;;11.40;97.60;;;;;;5034569;28;20085;-82
2020/12/22 02:10:14;;;;;;;1.17;0.70;;;11.40;97.70;;;;;;5020342;28;20427;-81
2020/12/22 02:12:40;;;;;;;1.40;0.50;;;11.40;97.70;;;;;;5024169;28;20025;-81
2020/12/22 02:15:06;;;;;;;0.70;0.57;;;11.50;97.70;;;;;;5051595;28;20036;-81
2020/12/22 02:17:31;;;;;;;2.55;0.65;;;11.50;97.80;;;;;;5037239;28;20060;-82
2020/12/22 02:19:57;;;;;;;1.67;0.50;;;11.60;97.90;;;;;;5031343;28;20040;-81
2020/12/22 02:22:22;;;;;;;0.98;0.40;;;11.60;97.80;;;;;;5034870;28;20039;-81
2020/12/22 02:24:48;;;;;;;1.08;0.60;;;11.70;97.80;;;;;;5038675;28;20032;-82
2020/12/22 02:27:13;;;;;;;0.60;0.50;;;11.70;97.90;;;;;;5018500;28;20033;-82
2020/12/22 02:29:39;;;;;;;1.70;0.70;;;11.80;98.00;;;;;;5022124;28;20036;-82
2020/12/22 02:32:04;;;;;;;2.40;0.38;;;11.80;97.90;;;;;;5049632;28;20075;-82
2020/12/22 02:34:30;;;;;;;0.32;0.32;;;11.80;97.90;;;;;;5034469;28;20035;-82
2020/12/22 02:36:55;;;;;;;0.47;0.30;;;11.80;98.00;;;;;;5043418;28;20416;-82
2020/12/22 02:39:21;;;;;;;1.30;0.30;;;11.90;97.80;;;;;;5028969;28;20499;-81
2020/12/22 02:41:46;;;;;;;1.30;0.43;;;12.00;97.90;;;;;;5046333;28;20060;-82
2020/12/22 02:44:12;;;;;;;0.70;0.70;;;12.00;97.80;;;;;;5052064;28;20025;-81
2020/12/22 02:46:37;;;;;;;0.47;0.30;;;12.00;97.80;;;;;;5038912;28;20036;-82
2020/12/22 02:49:04;;;;;;;0.35;0.28;;;12.00;97.90;;;;;;5038740;28;20032;-82
2020/12/22 02:51:30;;;;;;;1.10;0.60;;;12.00;97.90;;;;;;5019980;28;20028;-81
2020/12/22 02:53:56;;;;;;;2.33;0.68;;;12.00;97.80;;;;;;5037373;28;20025;-81
2020/12/22 02:56:21;;;;;;;1.38;0.68;;;12.10;97.80;;;;;;5029434;28;20495;-81
2020/12/22 02:58:50;;;;;;;0.50;0.40;;;12.10;97.80;;;;;;5021906;28;20487;-81
2020/12/22 03:01:15;;;;;;;2.13;0.68;;;12.10;98.00;;;;;;5008297;28;20416;-82
2020/12/22 03:03:41;;;;;;;0.98;0.40;;;12.10;97.80;;;;;;5024701;28;20025;-81
2020/12/22 03:06:06;;;;;;;0.38;0.32;;;12.10;97.70;;;;;;5024393;28;20078;-82
2020/12/22 03:08:32;;;;;;;0.98;0.60;;;12.10;97.70;;;;;;5038736;28;20039;-81
2020/12/22 03:10:57;;;;;;;0.40;0.30;;;12.30;97.90;;;;;;5026436;28;20036;-82
2020/12/22 03:13:23;;;;;;;4.22;0.60;;;12.20;97.80;;;;;;5028741;28;20466;-82
2020/12/22 03:15:48;;;;;;;4.63;0.47;;;12.30;97.70;;;;;;5028925;28;20028;-82
2020/12/22 03:18:14;;;;;;;1.15;0.50;;;12.20;97.60;;;;;;5008239;28;20044;-82
2020/12/22 03:20:39;;;;;;;1.38;0.52;;;12.30;97.60;;;;;;5039272;28;20041;-81
2020/12/22 03:23:05;;;;;;;0.57;0.25;;;12.30;97.50;;;;;;5029023;28;20402;-82
2020/12/22 03:25:31;;;;;;;0.77;0.43;;;12.40;97.50;;;;;;5028871;28;20039;-82
2020/12/22 03:27:56;;;;;;;0.50;0.50;;;12.30;97.60;;;;;;5025107;28;20043;-81
2020/12/22 03:30:22;;;;;;;3.88;0.63;;;12.40;97.50;;;;;;5031220;28;20040;-81
2020/12/22 03:32:47;;;;;;;1.00;0.60;;;12.40;97.60;;;;;;5029567;28;20028;-80
2020/12/22 03:35:13;;;;;;;1.92;0.45;;;12.40;97.40;;;;;;5030710;28;20086;-80
2020/12/22 03:37:38;;;;;;;0.38;0.38;;;12.40;97.40;;;;;;5035219;28;20036;-81
2020/12/22 03:40:05;;;;;;;2.22;0.70;;;12.40;97.60;;;;;;5020732;28;20530;-81
2020/12/22 03:42:31;;;;;;;0.70;0.70;;;12.50;97.50;;;;;;5027503;28;20066;-80
2020/12/22 03:44:56;;;;;;;1.08;0.70;;;12.50;97.40;;;;;;5022604;28;20032;-81
2020/12/22 03:47:22;;;;;;;0.80;0.43;;;12.60;97.30;;;;;;5027644;28;20039;-81
2020/12/22 03:49:48;;;;;;;1.02;0.55;;;12.60;97.40;;;;;;5025686;28;20024;-81
2020/12/22 03:52:14;;;;;;;1.15;0.70;;;12.60;97.40;;;;;;5026454;28;20043;-81
2020/12/22 03:54:39;;;;;;;0.60;0.43;;;12.60;97.40;;;;;;5016581;28;20036;-77
2020/12/22 03:57:05;;;;;;;2.25;0.60;;;12.60;97.40;;;;;;5024605;28;20471;-77
2020/12/22 03:59:32;;;;;;;1.23;0.45;;;12.60;97.40;;;;;;5014374;28;20020;-78
2020/12/22 04:01:59;;;;;;;4.63;0.73;;;12.70;97.30;;;;;;5020235;28;20034;-77
2020/12/22 04:04:24;;;;;;;4.03;0.50;;;12.60;97.30;;;;;;5028104;28;20032;-77
2020/12/22 04:06:50;;;;;;;2.85;0.63;;;12.60;97.30;;;;;;5031190;28;20117;-78
2020/12/22 04:09:16;;;;;;;1.65;0.68;;;12.70;97.20;;;;;;5028784;28;20033;-77
2020/12/22 04:11:42;;;;;;;3.05;0.45;;;12.70;97.10;;;;;;5039546;28;20082;-77
2020/12/22 04:14:08;;;;;;;0.40;0.40;;;12.70;97.10;;;;;;5031847;28;20037;-77
2020/12/22 04:16:34;;;;;;;1.65;0.60;;;12.70;97.20;;;;;;5014786;28;20036;-77
2020/12/22 04:18:59;;;;;;;1.63;0.52;;;12.70;97.10;;;;;;5037489;28;20492;-77
2020/12/22 04:21:26;;;;;;;0.35;0.30;;;12.80;97.10;;;;;;5037608;28;20093;-77
2020/12/22 04:23:51;;;;;;;1.55;0.50;;;12.80;97.00;;;;;;5026902;28;20033;-77
2020/12/22 04:26:17;;;;;;;3.00;0.43;;;12.80;97.10;;;;;;5013194;28;20448;-77
2020/12/22 04:28:42;;;;;;;1.00;0.32;;;12.80;97.00;;;;;;5037532;28;20027;-77
2020/12/22 04:31:08;;;;;;;1.50;0.50;;;12.80;97.00;;;;;;5022445;28;20044;-77
2020/12/22 04:33:33;;;;;;;1.13;0.50;;;12.80;97.00;;;;;;5011595;28;20060;-77
2020/12/22 04:35:59;;;;;;;0.43;0.32;;;12.90;96.90;;;;;;5027836;28;20107;-77
2020/12/22 04:38:24;;;;;;;1.02;0.40;;;12.90;97.00;;;;;;5026337;28;20024;-77
2020/12/22 04:40:51;;;;;;;0.82;0.82;;;12.90;96.90;;;;;;5035240;28;20020;-77
2020/12/22 04:43:17;;;;;;;1.95;0.73;;;12.90;96.90;;;;;;5052285;28;20120;-76
2020/12/22 04:45:42;;;;;;;0.70;0.25;;;12.90;96.90;;;;;;5022034;28;20539;-77
2020/12/22 04:48:08;;;;;;;4.13;0.68;;;12.90;96.90;;;;;;5025522;28;20031;-76
2020/12/22 04:50:34;;;;;;;0.40;0.22;;;12.90;96.80;;;;;;5037135;28;20036;-76
2020/12/22 04:52:59;;;;;;;0.17;0.15;;;12.90;96.80;;;;;;5022040;28;20476;-77
2020/12/22 04:55:25;;;;;;;2.72;0.43;;;13.00;96.80;;;;;;5041031;28;20028;-76
2020/12/22 04:57:51;;;;;;;1.88;0.50;;;12.90;96.70;;;;;;5028929;28;20111;-76
2020/12/22 05:00:17;;;;;;;0.30;0.30;;;13.00;96.80;;;;;;5027518;28;20902;-76
2020/12/22 05:02:44;;;;;;;0.52;0.20;;;13.00;96.90;;;;;;5015572;28;20039;-76
2020/12/22 05:05:10;;;;;;;6.32;0.45;;;13.00;96.70;;;;;;5011972;28;20135;-76
2020/12/22 05:07:36;;;;;;;0.57;0.20;;;13.00;97.00;;;;;;5035860;28;20052;-76
2020/12/22 05:10:09;;;;;;;0.47;0.40;;;13.00;96.80;;;;;;5031060;28;20029;-77
2020/12/22 05:12:34;;;;;;;0.30;0.30;;;13.00;96.70;;;;;;5020224;28;20052;-76
2020/12/22 05:15:01;;;;;;;3.08;0.50;;;13.00;96.60;;;;;;5055680;28;20027;-77
2020/12/22 05:17:27;;;;;;;0.40;0.30;;;13.00;96.50;;;;;;5023448;28;20046;-76
2020/12/22 05:19:53;;;;;;;0.77;0.40;;;13.10;96.60;;;;;;5040075;28;20487;-76
2020/12/22 05:22:19;;;;;;;0.20;0.15;;;13.00;96.60;;;;;;5019517;28;20031;-76
2020/12/22 05:24:45;;;;;;;3.17;0.43;;;13.10;96.50;;;;;;5031026;28;20107;-76
2020/12/22 05:27:11;;;;;;;0.45;0.40;;;13.10;96.50;;;;;;5040955;28;20140;-76
2020/12/22 05:29:36;;;;;;;0.30;0.30;;;13.10;96.60;;;;;;5059313;28;20444;-76
2020/12/22 05:32:03;;;;;;;1.25;0.40;;;13.10;96.50;;;;;;5017029;28;20408;-77
2020/12/22 05:34:29;;;;;;;0.15;0.15;;;13.10;96.50;;;;;;5033965;28;20020;-76
2020/12/22 05:36:57;;;;;;;0.90;0.60;;;13.10;96.50;;;;;;5029077;28;20383;-77
2020/12/22 05:39:22;;;;;;;0.95;0.30;;;13.10;96.50;;;;;;5018922;28;20109;-76
2020/12/22 05:41:48;;;;;;;4.40;0.52;;;13.10;96.50;;;;;;5013871;28;20044;-77
2020/12/22 05:44:13;;;;;;;2.25;0.38;;;13.10;96.50;;;;;;5028396;28;20053;-76
2020/12/22 05:46:40;;;;;;;0.10;0.10;;;13.10;96.50;;;;;;5028276;28;20059;-76
2020/12/22 05:49:07;;;;;;;0.20;0.20;;;13.10;96.50;;;;;;5055520;28;20036;-76
2020/12/22 05:51:33;;;;;;;0.22;0.22;;;13.10;96.60;;;;;;5022898;28;20046;-76
2020/12/22 05:54:02;;;;;;;0.40;0.20;;;13.10;96.50;;;;;;5025775;28;20622;-76
2020/12/22 05:56:28;;;;;;;0.98;0.40;;;13.10;96.60;;;;;;5034780;28;20054;-77
2020/12/22 05:58:54;;;;;;;0.73;0.45;;;13.10;96.60;;;;;;5037582;28;20035;-76
2020/12/22 06:01:30;;;;;;;0.82;0.30;;;13.10;96.70;;;;;;5031638;28;20472;-76
2020/12/22 06:03:57;;;;;;;0.30;0.22;;;13.10;96.80;;;;;;5020154;28;20075;-77
2020/12/22 06:06:28;;;;;;;1.08;0.35;;;13.10;96.90;;;;;;5018561;28;20117;-76
2020/12/22 06:08:54;;;;;;;1.80;0.50;;;13.00;96.80;;;;;;5016888;28;20480;-76
2020/12/22 06:11:19;;;;;;;0.85;0.40;;;13.00;96.90;;;;;;5031069;28;20047;-77
2020/12/22 06:13:49;;;;;;;2.45;0.43;;;13.10;97.00;;;;;;5017177;28;20364;-78
2020/12/22 06:16:19;;;;;;;1.05;0.35;;;13.00;96.90;;;;;;5033355;28;20044;-77
2020/12/22 06:18:45;;;;;;;0.30;0.20;;;13.00;97.10;;;;;;5023910;28;20033;-78
2020/12/22 06:21:11;;;;;;;0.40;0.40;;;13.00;97.10;;;;;;5025834;28;20036;-77
2020/12/22 06:23:37;;;;;;;0.90;0.32;;;13.00;97.10;;;;;;5010361;28;20037;-78
2020/12/22 06:26:05;;;;;;;0.52;0.38;;;13.00;97.20;;;;;;5024044;28;20295;-77
2020/12/22 06:28:31;;;;;;;0.70;0.60;;;13.00;97.20;;;;;;5034624;28;20471;-76
2020/12/22 06:30:56;;;;;;;0.50;0.50;;;13.00;97.20;;;;;;5038435;28;20042;-77
2020/12/22 06:33:24;;;;;;;1.00;0.32;;;13.00;97.30;;;;;;5021587;28;20044;-77
2020/12/22 06:35:59;;;;;;;0.80;0.40;;;12.90;97.30;;;;;;5046462;28;20044;-77
2020/12/22 06:38:53;;;;;;;0.35;0.25;;;13.00;97.40;;;;;;5039465;28;20044;-77
2020/12/22 06:41:45;;;;;;;2.05;0.45;;;13.00;97.40;;;;;;5044806;28;20097;-76
2020/12/22 06:44:26;;;;;;;1.27;0.30;;;12.90;97.30;;;;;;5024195;28;20480;-77
2020/12/22 06:46:56;;;;;;;0.80;0.47;;;12.90;97.30;;;;;;5057456;28;20038;-77
2020/12/22 06:49:47;;;;;;;1.60;0.40;;;12.90;97.20;;;;;;5035749;28;20039;-78
2020/12/22 06:52:26;;;;;;;2.08;0.40;;;12.90;97.40;;;;;;5057689;28;20047;-78
2020/12/22 06:54:51;;;;;;;0.60;0.40;;;12.90;97.40;;;;;;5043242;28;20035;-77
2020/12/22 06:57:40;;;;;;;0.30;0.30;;;12.90;97.40;;;;;;5029791;28;20121;-77
2020/12/22 07:00:07;;;;;;;0.70;0.57;;;12.90;97.50;;;;;;5070035;28;20050;-78
2020/12/22 07:02:35;;;;;;;0.45;0.45;;;12.90;97.50;;;;;;5042441;28;20016;-77
2020/12/22 07:05:01;;;;;;;0.15;0.15;;;12.90;97.50;;;;;;5042425;28;20024;-77
2020/12/22 07:07:53;;;;;;;1.08;0.38;;;12.80;97.30;;;;;;5025206;28;20031;-77
2020/12/22 07:10:18;;;;;;;0.50;0.50;;;12.80;97.30;;;;;;5029905;28;20056;-77
2020/12/22 07:12:44;;;;;;;0.90;0.55;;;12.80;97.50;;;;;;5035759;28;20539;-77
2020/12/22 07:15:10;;;;;;;0.60;0.60;;;12.90;97.50;;;;;;5047093;28;20323;-77
2020/12/22 07:17:35;;;;;;;1.00;0.63;;;12.80;97.50;;;;;;5040247;28;20433;-76
2020/12/22 07:20:01;;;;;;;0.77;0.45;;;12.80;97.40;;;;;;5012383;28;20484;-77
2020/12/22 07:22:26;;;;;;;2.05;0.52;;;12.80;97.40;;;;;;5044398;28;20024;-77
2020/12/22 07:24:52;;;;;;;0.63;0.60;;;12.80;97.30;;;;;;5012032;28;20025;-77
2020/12/22 07:27:17;;;;;;;0.75;0.30;;;12.80;97.40;;;;;;5032340;28;20033;-77
2020/12/22 07:29:43;;;;;;;1.17;0.47;;;12.80;97.40;;;;;;5033642;28;20063;-77
2020/12/22 07:32:09;;;;;;;2.15;0.75;;;12.90;97.40;;;;;;5034441;28;20037;-77
2020/12/22 07:34:35;;;;;;;0.88;0.30;;;12.80;97.30;;;;;;5016429;28;20030;-77
2020/12/22 07:37:08;;;;;;;0.88;0.70;;;12.80;97.30;;;;;;5013991;28;20028;-77
2020/12/22 07:39:33;;;;;;;0.73;0.70;;;12.90;97.30;;;;;;5052102;28;20040;-77
2020/12/22 07:42:15;;;;;;;0.38;0.38;;;12.90;97.20;;;;;;5010778;28;20035;-78
2020/12/22 07:44:42;;;;;;;1.35;0.75;;;12.90;97.20;;;;;;5051145;28;20028;-77
2020/12/22 07:47:08;;;;;;;0.30;0.30;;;12.90;97.20;;;;;;5042370;28;20044;-77
2020/12/22 07:49:33;;;;;;;0.80;0.60;;;12.80;97.10;;;;;;5022429;28;20032;-77
2020/12/22 07:51:59;;;;;;;1.75;0.68;;;12.80;97.10;;;;;;5051738;28;20031;-77
2020/12/22 07:54:27;;;;;;;1.25;0.60;;;12.90;96.90;;;;;;5023016;28;20128;-78
2020/12/22 07:56:57;;;;;;;0.82;0.68;;;12.90;97.10;;;;;;5019719;28;20032;-77
2020/12/22 07:59:22;;;;;;;0.13;0.13;;;12.90;97.00;;;;;;5034973;28;20127;-77
2020/12/22 08:01:48;;;;;;;0.88;0.47;;;12.90;96.80;;;;;;5016356;28;20123;-77
2020/12/22 08:04:21;;;;;;;0.63;0.60;;;12.90;96.90;;;;;;5016341;28;20024;-77
2020/12/22 08:06:58;;;;;;;0.25;0.25;;;12.90;96.90;;;;;;5030372;28;20029;-78
2020/12/22 08:09:30;;;;;;;0.45;0.45;;;12.90;96.90;;;;;;5047723;28;20036;-77
2020/12/22 08:11:59;;;;;;;2.33;0.50;;;12.90;96.80;;;;;;5029808;28;20033;-77
2020/12/22 08:14:25;;;;;;;0.80;0.30;;;12.90;96.70;;;;;;5020084;28;20036;-77
2020/12/22 08:16:55;;;;;;;4.65;0.70;;;13.00;96.80;;;;;;5014139;28;20067;-77
2020/12/22 08:19:21;;;;;;;2.58;0.60;;;12.90;96.60;;;;;;5017641;28;20043;-77
2020/12/22 08:21:47;;;;;;;0.40;0.40;;;13.00;96.60;;;;;;5021225;28;20036;-77
2020/12/22 08:24:14;;;;;;;0.30;0.30;;;13.00;96.60;;;;;;5045334;28;20025;-77
2020/12/22 08:26:52;;;;;;;1.85;0.57;;;12.90;96.50;;;;;;5040633;28;20177;-78
2020/12/22 08:29:17;;;;;;;2.90;0.52;;;12.90;96.50;;;;;;5035176;28;20035;-77
2020/12/22 08:31:43;;;;;;;0.93;0.40;;;12.90;96.50;;;;;;5028198;28;20028;-77
2020/12/22 08:34:10;;;;;;;0.95;0.45;;;12.90;96.40;;;;;;5020432;28;20063;-77
2020/12/22 08:36:36;;;;;;;0.93;0.50;;;12.90;96.40;;;;;;5037319;28;20043;-77
2020/12/22 08:39:19;;;;;;;2.30;0.52;;;13.00;96.90;;;;;;5015664;28;20387;-78
2020/12/22 08:41:46;;;;;;;0.40;0.30;;;13.00;96.40;;;;;;5033952;28;20043;-77
2020/12/22 08:44:12;;;;;;;2.20;0.35;;;13.00;96.50;;;;;;5041155;28;20036;-76
2020/12/22 08:46:38;;;;;;;1.50;0.63;;;12.90;96.40;;;;;;5025043;28;20036;-76
2020/12/22 08:49:14;;;;;;;3.17;0.70;;;12.90;96.50;;;;;;5040475;28;20032;-77
2020/12/22 08:51:42;;;;;;;1.75;0.68;;;12.90;96.50;;;;;;5022117;28;20036;-77
2020/12/22 08:54:08;;;;;;;0.52;0.43;;;12.90;96.50;;;;;;5055942;28;20048;-76
2020/12/22 08:56:34;;;;;;;2.08;0.52;;;12.90;96.40;;;;;;5021144;28;20466;-77
2020/12/22 08:59:00;;;;;;;0.77;0.52;;;12.90;96.40;;;;;;5027074;28;20491;-76
2020/12/22 09:01:37;;;;;;;1.15;0.77;;;12.90;96.40;;;;;;5033710;28;20459;-77
2020/12/22 09:04:03;;;;;;;3.08;0.75;;;12.90;96.30;;;;;;5031988;28;20033;-77
2020/12/22 09:06:46;;;;;;;1.92;0.70;;;12.90;96.40;;;;;;5062604;28;20024;-76
2020/12/22 09:09:16;;;;;;;0.95;0.47;;;12.90;96.30;;;;;;5042028;28;20387;-76
2020/12/22 09:11:42;;;;;;;3.55;0.50;;;12.90;96.30;;;;;;5036673;28;20036;-77
2020/12/22 09:14:08;;;;;;;0.40;0.40;;;13.00;96.20;;;;;;5021974;28;20141;-76
2020/12/22 09:16:46;;;;;;;2.55;0.70;;;13.00;96.20;;;;;;5059532;28;20571;-76
2020/12/22 09:19:11;;;;;;;1.95;0.40;;;13.10;96.10;;;;;;5049604;28;20041;-75
2020/12/22 09:21:38;;;;;;;1.95;0.52;;;13.10;95.80;;;;;;5040490;28;20043;-77
2020/12/22 09:24:04;;;;;;;2.10;0.75;;;13.10;96.00;;;;;;5019258;28;20223;-77
2020/12/22 09:26:29;;;;;;;0.63;0.38;;;13.10;95.80;;;;;;5045651;28;20036;-77
2020/12/22 09:28:56;;;;;;;0.38;0.38;;;13.20;95.80;;;;;;5044713;28;20456;-77
2020/12/22 09:31:25;;;;;;;2.75;0.70;;;13.20;95.70;;;;;;5013869;28;20033;-77
2020/12/22 09:33:51;;;;;;;1.25;0.50;;;13.30;95.60;;;;;;5021382;28;20073;-76
2020/12/22 09:36:16;;;;;;;1.15;0.40;;;13.20;95.50;;;;;;5033776;28;20032;-77
2020/12/22 09:38:42;;;;;;;4.32;0.93;;;13.30;95.60;;;;;;5046787;28;20033;-76
2020/12/22 09:41:07;;;;;;;1.10;0.65;;;13.30;95.40;;;;;;5040692;28;20045;-76
2020/12/22 09:43:33;;;;;;;1.00;0.45;;;13.30;95.30;;;;;;5034665;28;20312;-76
2020/12/22 09:45:58;;;;;;;0.70;0.52;;;13.30;95.50;;;;;;5040966;28;20032;-76
2020/12/22 09:48:24;;;;;;;2.45;1.02;;;13.40;94.90;;;;;;5022255;28;20085;-76
2020/12/22 09:50:49;;;;;;;3.67;0.55;;;13.40;95.30;;;;;;5046829;28;20060;-76
2020/12/22 09:53:15;;;;;;;1.17;0.60;;;13.30;95.30;;;;;;5030461;28;20024;-76
2020/12/22 09:55:40;;;;;;;1.73;0.80;;;13.30;95.40;;;;;;5015643;28;20036;-77
2020/12/22 09:58:06;;;;;;;2.33;0.90;;;13.20;95.20;;;;;;5023329;28;20052;-76
2020/12/22 10:00:31;;;;;;;2.05;0.93;;;13.20;95.30;;;;;;5039312;28;20029;-75
2020/12/22 10:02:57;;;;;;;0.40;0.40;;;13.20;95.20;;;;;;5029279;28;20029;-76
2020/12/22 10:05:23;;;;;;;1.90;0.38;;;13.10;95.10;;;;;;5035418;28;20384;-76
2020/12/22 10:07:48;;;;;;;1.55;1.00;;;13.10;95.10;;;;;;5061284;28;20046;-76
2020/12/22 10:10:14;;;;;;;4.93;1.00;;;13.10;95.00;;;;;;5015307;28;20214;-76
2020/12/22 10:12:39;;;;;;;1.48;0.82;;;13.10;95.00;;;;;;5056305;28;20064;-76
2020/12/22 10:15:05;;;;;;;1.35;0.45;;;13.20;94.70;;;;;;5023976;28;20392;-76
2020/12/22 10:17:31;;;;;;;3.45;1.20;;;13.20;94.70;;;;;;5022965;28;20103;-76
2020/12/22 10:19:56;;;;;;;1.40;0.50;;;13.30;94.90;;;;;;5037922;28;20115;-75
2020/12/22 10:22:22;;;;;;;3.30;0.68;;;13.20;94.70;;;;;;5022225;28;20663;-76
2020/12/22 10:24:48;;;;;;;2.88;0.85;;;13.20;94.90;;;;;;5033094;28;20050;-76
2020/12/22 10:27:13;;;;;;;0.57;0.57;;;13.20;94.70;;;;;;5032249;28;20033;-76
2020/12/22 10:29:39;;;;;;;1.13;0.50;;;13.20;94.90;;;;;;5045291;28;20303;-76
2020/12/22 10:32:04;;;;;;;1.95;0.73;;;13.20;95.20;;;;;;5032201;28;20033;-76
2020/12/22 10:34:30;;;;;;;1.25;0.85;;;13.20;95.40;;;;;;5033947;28;20020;-76
2020/12/22 10:36:56;;;;;;;2.40;0.73;;;13.20;95.50;;;;;;5028391;28;20035;-77
2020/12/22 10:39:22;;;;;;;1.08;0.82;;;13.10;95.60;;;;;;5029716;28;20043;-75
2020/12/22 10:41:48;;;;;;;1.02;0.90;;;13.10;95.50;;;;;;5011690;28;20400;-77
2020/12/22 10:44:13;;;;;;;3.60;1.00;;;13.10;95.70;;;;;;5042976;28;20170;-77
2020/12/22 10:46:39;;;;;;;2.95;1.30;;;13.00;95.60;;;;;;5014893;28;20484;-76
2020/12/22 10:49:04;;;;;;;1.48;0.80;;;13.10;95.70;;;;;;5029862;28;20031;-77
2020/12/22 10:51:31;;;;;;;1.80;1.15;;;13.10;95.70;;;;;;5018204;28;20032;-77
2020/12/22 10:53:57;;;;;;;0.77;0.77;;;13.00;95.70;;;;;;5025524;28;20495;-77
2020/12/22 10:56:23;;;;;;;0.82;0.75;;;13.10;95.70;;;;;;5014757;28;20047;-76
2020/12/22 10:58:48;;;;;;;4.13;1.73;;;13.10;95.60;;;;;;5033524;28;20043;-77
2020/12/22 11:01:14;;;;;;;2.47;1.70;;;13.20;95.60;;;;;;5045274;28;20036;-76
2020/12/22 11:03:41;;;;;;;3.47;1.73;;;13.20;95.60;;;;;;5042256;28;20048;-77
2020/12/22 11:06:21;;;;;;;3.58;1.48;;;13.20;95.60;;;;;;5015057;28;20106;-76
2020/12/22 11:08:47;;;;;;;7.63;1.88;;;13.20;95.60;;;;;;5033863;28;20587;-76
2020/12/22 11:11:13;;;;;;;2.10;1.50;;;13.20;95.60;;;;;;5025273;28;20419;-77
2020/12/22 11:13:41;;;;;;;3.85;1.60;;;13.10;95.50;;;;;;5039645;28;20036;-76
2020/12/22 11:16:12;;;;;;;4.57;1.83;;;13.20;95.50;;;;;;5012036;28;20035;-76
2020/12/22 11:18:39;;;;;;;2.25;1.40;;;13.10;95.70;;;;;;5037875;28;20102;-76
2020/12/22 11:21:11;;;;;;;3.50;1.65;;;13.10;95.90;;;;;;5031451;28;20414;-77
2020/12/22 11:23:37;;;;;;;1.23;1.13;;;13.20;96.00;;;;;;5037231;28;20052;-76
2020/12/22 11:26:03;;;;;;;2.30;1.65;;;13.20;95.50;;;;;;5033674;28;20101;-76
2020/12/22 11:28:28;;;;;;;0.60;0.60;;;13.20;95.60;;;;;;5044244;28;20032;-77
2020/12/22 11:30:54;;;;;;;3.30;1.40;;;13.20;95.40;;;;;;5025692;28;20114;-76
2020/12/22 11:33:19;;;;;;;2.47;0.93;;;13.30;95.30;;;;;;5025483;28;20132;-77
2020/12/22 11:35:45;;;;;;;3.65;1.23;;;13.20;95.00;;;;;;5050067;28;20041;-77
2020/12/22 11:38:10;;;;;;;1.90;1.38;;;13.30;95.10;;;;;;5009317;28;20037;-77
2020/12/22 11:40:36;;;;;;;4.13;1.67;;;13.30;95.40;;;;;;5056670;28;20032;-76
2020/12/22 11:43:02;;;;;;;4.00;1.27;;;13.30;95.00;;;;;;5031438;28;20346;-77
2020/12/22 11:45:28;;;;;;;1.70;0.93;;;13.30;95.00;;;;;;5022335;28;20036;-76
2020/12/22 11:47:53;;;;;;;2.33;1.08;;;13.20;94.80;;;;;;5058420;28;20028;-77
2020/12/22 11:50:19;;;;;;;2.13;1.08;;;13.20;94.70;;;;;;5014374;28;20032;-76
2020/12/22 11:52:45;;;;;;;4.50;1.35;;;13.10;94.70;;;;;;5018592;28;20357;-76
2020/12/22 11:55:10;;;;;;;4.40;1.17;;;13.20;94.90;;;;;;5036186;28;20052;-77
2020/12/22 11:57:36;;;;;;;2.80;1.40;;;13.20;94.60;;;;;;5036961;28;20045;-76
2020/12/22 12:00:03;;;;;;;3.35;1.73;;;13.20;94.70;;;;;;5034302;28;20094;-76
2020/12/22 12:02:30;;;;;;;3.22;1.23;;;13.30;94.80;;;;;;5035954;28;20039;-77
2020/12/22 12:05:04;;;;;;;3.80;1.05;;;13.30;94.60;;;;;;5030852;28;20032;-78
2020/12/22 12:07:29;;;;;;;3.70;1.17;;;13.30;94.50;;;;;;5006903;28;20027;-77
2020/12/22 12:09:55;;;;;;;4.10;1.48;;;13.30;94.20;;;;;;5045389;28;20024;-76
2020/12/22 12:12:20;;;;;;;3.15;1.25;;;13.30;94.50;;;;;;5030969;28;20036;-76
2020/12/22 12:14:46;;;;;;;1.95;1.23;;;13.40;94.50;;;;;;5043054;28;20391;-77
2020/12/22 12:17:11;;;;;;;3.25;1.00;;;13.40;94.20;;;;;;5041616;28;20079;-77
2020/12/22 12:19:37;;;;;;;3.20;1.23;;;13.40;94.20;;;;;;5039867;28;20505;-77
2020/12/22 12:22:02;;;;;;;2.42;1.00;;;13.40;94.10;;;;;;5035598;28;20499;-77
2020/12/22 12:24:28;;;;;;;1.27;0.60;;;13.50;94.30;;;;;;5044840;28;20142;-77
2020/12/22 12:26:53;;;;;;;2.55;1.33;;;13.50;94.00;;;;;;5033000;28;20495;-77
2020/12/22 12:29:19;;;;;;;2.33;0.88;;;13.50;93.80;;;;;;5032645;28;20025;-76
2020/12/22 12:31:48;;;;;;;2.83;0.95;;;13.50;94.50;;;;;;5025914;28;20037;-77
2020/12/22 12:34:13;;;;;;;1.50;0.98;;;13.50;93.90;;;;;;5031602;28;20112;-76
2020/12/22 12:36:39;;;;;;;2.17;0.75;;;13.50;94.10;;;;;;5012590;28;20178;-77
2020/12/22 12:39:06;;;;;;;1.40;0.75;;;13.50;93.60;;;;;;5029744;28;20029;-77
2020/12/22 12:41:31;;;;;;;1.77;0.88;;;13.40;93.50;;;;;;5018446;28;20040;-77
2020/12/22 12:43:57;;;;;;;2.67;1.00;;;13.40;93.70;;;;;;5038694;28;20112;-76
2020/12/22 12:46:22;;;;;;;3.22;1.25;;;13.40;93.70;;;;;;5037967;28;20394;-76